sensor_id;sensor_type;location;lat;lon;timestamp;P1;durP1;ratioP1;P2;durP2;ratioP2
22955;SDS011;40888;48.148;11.526;2024-03-08T00:02:24;17.73;;;15.13;;
22955;SDS011;40888;48.148;11.526;2024-03-08T00:04:50;18.10;;;15.80;;
22955;SDS011;40888;48.148;11.526;2024-03-08T00:07:15;16.17;;;14.50;;
22955;SDS011;40888;48.148;11.526;2024-03-08T00:09:41;17.73;;;15.20;;
22955;SDS011;40888;48.148;11.526;2024-03-08T00:12:07;17.47;;;15.57;;
22955;SDS011;40888;48.148;11.526;2024-03-08T00:14:35;17.60;;;14.83;;
22955;SDS011;40888;48.148;11.526;2024-03-08T00:17:02;17.87;;;15.67;;
22955;SDS011;40888;48.148;11.526;2024-03-08T00:19:28;16.40;;;14.63;;
22955;SDS011;40888;48.148;11.526;2024-03-08T00:21:54;16.70;;;14.73;;
22955;SDS011;40888;48.148;11.526;2024-03-08T00:24:20;16.70;;;14.90;;
22955;SDS011;40888;48.148;11.526;2024-03-08T00:26:50;18.10;;;15.17;;
22955;SDS011;40888;48.148;11.526;2024-03-08T00:29:15;16.90;;;15.00;;
22955;SDS011;40888;48.148;11.526;2024-03-08T00:31:41;18.20;;;15.73;;
22955;SDS011;40888;48.148;11.526;2024-03-08T00:34:07;17.93;;;15.27;;
22955;SDS011;40888;48.148;11.526;2024-03-08T00:36:35;18.30;;;16.23;;
22955;SDS011;40888;48.148;11.526;2024-03-08T00:39:01;18.10;;;16.20;;
22955;SDS011;40888;48.148;11.526;2024-03-08T00:41:26;21.40;;;16.23;;
22955;SDS011;40888;48.148;11.526;2024-03-08T00:43:53;19.50;;;16.33;;
22955;SDS011;40888;48.148;11.526;2024-03-08T00:46:19;18.07;;;15.97;;
22955;SDS011;40888;48.148;11.526;2024-03-08T00:48:45;18.37;;;16.47;;
22955;SDS011;40888;48.148;11.526;2024-03-08T00:51:12;18.37;;;15.47;;
22955;SDS011;40888;48.148;11.526;2024-03-08T00:53:37;18.63;;;16.27;;
22955;SDS011;40888;48.148;11.526;2024-03-08T00:56:03;17.90;;;16.10;;
22955;SDS011;40888;48.148;11.526;2024-03-08T00:58:29;17.97;;;15.90;;
22955;SDS011;40888;48.148;11.526;2024-03-08T01:00:55;19.03;;;16.40;;
22955;SDS011;40888;48.148;11.526;2024-03-08T01:03:22;18.60;;;15.90;;
22955;SDS011;40888;48.148;11.526;2024-03-08T01:05:48;20.57;;;16.97;;
22955;SDS011;40888;48.148;11.526;2024-03-08T01:08:13;17.97;;;16.07;;
22955;SDS011;40888;48.148;11.526;2024-03-08T01:10:39;18.40;;;16.30;;
22955;SDS011;40888;48.148;11.526;2024-03-08T01:13:05;19.30;;;17.00;;
22955;SDS011;40888;48.148;11.526;2024-03-08T01:15:30;19.80;;;16.47;;
22955;SDS011;40888;48.148;11.526;2024-03-08T01:17:56;21.27;;;17.03;;
22955;SDS011;40888;48.148;11.526;2024-03-08T01:20:22;19.53;;;16.90;;
22955;SDS011;40888;48.148;11.526;2024-03-08T01:22:47;20.10;;;17.87;;
22955;SDS011;40888;48.148;11.526;2024-03-08T01:25:13;22.13;;;17.90;;
22955;SDS011;40888;48.148;11.526;2024-03-08T01:27:39;22.73;;;17.47;;
22955;SDS011;40888;48.148;11.526;2024-03-08T01:30:05;19.53;;;16.93;;
22955;SDS011;40888;48.148;11.526;2024-03-08T01:32:31;19.97;;;16.93;;
22955;SDS011;40888;48.148;11.526;2024-03-08T01:34:57;21.93;;;17.40;;
22955;SDS011;40888;48.148;11.526;2024-03-08T01:37:23;19.40;;;17.37;;
22955;SDS011;40888;48.148;11.526;2024-03-08T01:39:49;21.33;;;17.83;;
22955;SDS011;40888;48.148;11.526;2024-03-08T01:42:14;19.73;;;17.10;;
22955;SDS011;40888;48.148;11.526;2024-03-08T01:44:42;18.90;;;16.50;;
22955;SDS011;40888;48.148;11.526;2024-03-08T01:47:09;21.93;;;18.50;;
22955;SDS011;40888;48.148;11.526;2024-03-08T01:49:36;20.63;;;17.43;;
22955;SDS011;40888;48.148;11.526;2024-03-08T01:52:03;20.93;;;18.00;;
22955;SDS011;40888;48.148;11.526;2024-03-08T01:54:29;19.23;;;17.10;;
22955;SDS011;40888;48.148;11.526;2024-03-08T01:56:56;21.13;;;18.33;;
22955;SDS011;40888;48.148;11.526;2024-03-08T01:59:23;20.67;;;17.23;;
22955;SDS011;40888;48.148;11.526;2024-03-08T02:01:52;20.80;;;18.13;;
22955;SDS011;40888;48.148;11.526;2024-03-08T02:04:20;22.33;;;18.20;;
22955;SDS011;40888;48.148;11.526;2024-03-08T02:06:46;22.83;;;18.67;;
22955;SDS011;40888;48.148;11.526;2024-03-08T02:09:13;22.30;;;18.10;;
22955;SDS011;40888;48.148;11.526;2024-03-08T02:11:40;22.23;;;17.43;;
22955;SDS011;40888;48.148;11.526;2024-03-08T02:14:06;20.97;;;18.57;;
22955;SDS011;40888;48.148;11.526;2024-03-08T02:16:32;20.87;;;18.67;;
22955;SDS011;40888;48.148;11.526;2024-03-08T02:18:58;23.63;;;19.23;;
22955;SDS011;40888;48.148;11.526;2024-03-08T02:21:24;21.30;;;18.10;;
22955;SDS011;40888;48.148;11.526;2024-03-08T02:23:50;22.67;;;19.27;;
22955;SDS011;40888;48.148;11.526;2024-03-08T02:26:17;25.37;;;19.53;;
22955;SDS011;40888;48.148;11.526;2024-03-08T02:28:44;23.77;;;19.73;;
22955;SDS011;40888;48.148;11.526;2024-03-08T02:31:10;22.67;;;18.93;;
22955;SDS011;40888;48.148;11.526;2024-03-08T02:33:36;24.40;;;19.57;;
22955;SDS011;40888;48.148;11.526;2024-03-08T02:36:01;23.60;;;19.20;;
22955;SDS011;40888;48.148;11.526;2024-03-08T02:38:27;21.83;;;19.27;;
22955;SDS011;40888;48.148;11.526;2024-03-08T02:40:53;22.10;;;19.17;;
22955;SDS011;40888;48.148;11.526;2024-03-08T02:43:20;24.50;;;19.87;;
22955;SDS011;40888;48.148;11.526;2024-03-08T02:45:49;23.13;;;19.90;;
22955;SDS011;40888;48.148;11.526;2024-03-08T02:48:15;22.03;;;18.53;;
22955;SDS011;40888;48.148;11.526;2024-03-08T02:50:41;25.50;;;19.23;;
22955;SDS011;40888;48.148;11.526;2024-03-08T02:53:09;22.23;;;19.43;;
22955;SDS011;40888;48.148;11.526;2024-03-08T02:55:36;23.37;;;18.70;;
22955;SDS011;40888;48.148;11.526;2024-03-08T02:58:06;23.63;;;20.00;;
22955;SDS011;40888;48.148;11.526;2024-03-08T03:00:35;23.70;;;19.40;;
22955;SDS011;40888;48.148;11.526;2024-03-08T03:03:01;22.53;;;19.13;;
22955;SDS011;40888;48.148;11.526;2024-03-08T03:05:28;23.57;;;19.20;;
22955;SDS011;40888;48.148;11.526;2024-03-08T03:07:55;24.87;;;19.73;;
22955;SDS011;40888;48.148;11.526;2024-03-08T03:10:21;25.70;;;20.60;;
22955;SDS011;40888;48.148;11.526;2024-03-08T03:12:47;23.93;;;19.57;;
22955;SDS011;40888;48.148;11.526;2024-03-08T03:15:13;23.63;;;19.57;;
22955;SDS011;40888;48.148;11.526;2024-03-08T03:17:40;25.73;;;21.50;;
22955;SDS011;40888;48.148;11.526;2024-03-08T03:20:06;23.47;;;20.57;;
22955;SDS011;40888;48.148;11.526;2024-03-08T03:22:38;25.47;;;20.27;;
22955;SDS011;40888;48.148;11.526;2024-03-08T03:25:04;22.27;;;19.07;;
22955;SDS011;40888;48.148;11.526;2024-03-08T03:27:31;24.63;;;20.27;;
22955;SDS011;40888;48.148;11.526;2024-03-08T03:29:57;23.47;;;20.97;;
22955;SDS011;40888;48.148;11.526;2024-03-08T03:32:23;25.63;;;21.43;;
22955;SDS011;40888;48.148;11.526;2024-03-08T03:34:49;27.33;;;21.23;;
22955;SDS011;40888;48.148;11.526;2024-03-08T03:37:21;26.23;;;21.20;;
22955;SDS011;40888;48.148;11.526;2024-03-08T03:39:47;24.83;;;21.00;;
22955;SDS011;40888;48.148;11.526;2024-03-08T03:42:18;24.30;;;19.93;;
22955;SDS011;40888;48.148;11.526;2024-03-08T03:44:48;25.60;;;20.73;;
22955;SDS011;40888;48.148;11.526;2024-03-08T03:47:17;24.77;;;20.90;;
22955;SDS011;40888;48.148;11.526;2024-03-08T03:49:42;26.63;;;20.77;;
22955;SDS011;40888;48.148;11.526;2024-03-08T03:52:08;25.23;;;21.47;;
22955;SDS011;40888;48.148;11.526;2024-03-08T03:54:35;26.23;;;21.13;;
22955;SDS011;40888;48.148;11.526;2024-03-08T03:57:01;24.73;;;20.53;;
22955;SDS011;40888;48.148;11.526;2024-03-08T03:59:28;25.23;;;20.67;;
22955;SDS011;40888;48.148;11.526;2024-03-08T04:01:54;25.43;;;21.40;;
22955;SDS011;40888;48.148;11.526;2024-03-08T04:04:20;25.30;;;21.43;;
22955;SDS011;40888;48.148;11.526;2024-03-08T04:06:46;26.07;;;21.53;;
22955;SDS011;40888;48.148;11.526;2024-03-08T04:09:12;25.97;;;21.03;;
22955;SDS011;40888;48.148;11.526;2024-03-08T04:11:39;28.37;;;21.83;;
22955;SDS011;40888;48.148;11.526;2024-03-08T04:14:05;28.13;;;21.87;;
22955;SDS011;40888;48.148;11.526;2024-03-08T04:16:31;26.77;;;22.43;;
22955;SDS011;40888;48.148;11.526;2024-03-08T04:18:58;26.47;;;21.57;;
22955;SDS011;40888;48.148;11.526;2024-03-08T04:21:23;26.80;;;22.20;;
22955;SDS011;40888;48.148;11.526;2024-03-08T04:23:49;28.50;;;21.87;;
22955;SDS011;40888;48.148;11.526;2024-03-08T04:26:15;26.20;;;22.13;;
22955;SDS011;40888;48.148;11.526;2024-03-08T04:28:41;27.17;;;22.10;;
22955;SDS011;40888;48.148;11.526;2024-03-08T04:31:06;29.40;;;23.67;;
22955;SDS011;40888;48.148;11.526;2024-03-08T04:33:32;28.83;;;22.67;;
22955;SDS011;40888;48.148;11.526;2024-03-08T04:36:00;29.13;;;23.53;;
22955;SDS011;40888;48.148;11.526;2024-03-08T04:38:29;29.53;;;23.90;;
22955;SDS011;40888;48.148;11.526;2024-03-08T04:40:56;29.97;;;24.80;;
22955;SDS011;40888;48.148;11.526;2024-03-08T04:43:22;31.03;;;25.10;;
22955;SDS011;40888;48.148;11.526;2024-03-08T04:45:51;28.97;;;24.50;;
22955;SDS011;40888;48.148;11.526;2024-03-08T04:48:18;29.87;;;24.83;;
22955;SDS011;40888;48.148;11.526;2024-03-08T04:50:45;27.77;;;23.67;;
22955;SDS011;40888;48.148;11.526;2024-03-08T04:53:11;28.77;;;25.23;;
22955;SDS011;40888;48.148;11.526;2024-03-08T04:55:37;30.83;;;26.07;;
22955;SDS011;40888;48.148;11.526;2024-03-08T04:58:03;29.10;;;24.37;;
22955;SDS011;40888;48.148;11.526;2024-03-08T05:00:31;32.17;;;26.27;;
22955;SDS011;40888;48.148;11.526;2024-03-08T05:02:57;31.93;;;25.30;;
22955;SDS011;40888;48.148;11.526;2024-03-08T05:05:23;31.63;;;26.50;;
22955;SDS011;40888;48.148;11.526;2024-03-08T05:07:50;29.30;;;25.37;;
22955;SDS011;40888;48.148;11.526;2024-03-08T05:10:15;30.33;;;25.83;;
22955;SDS011;40888;48.148;11.526;2024-03-08T05:12:42;30.63;;;25.43;;
22955;SDS011;40888;48.148;11.526;2024-03-08T05:15:09;33.30;;;26.33;;
22955;SDS011;40888;48.148;11.526;2024-03-08T05:17:34;31.33;;;25.63;;
22955;SDS011;40888;48.148;11.526;2024-03-08T05:20:00;31.83;;;24.50;;
22955;SDS011;40888;48.148;11.526;2024-03-08T05:22:26;32.63;;;26.50;;
22955;SDS011;40888;48.148;11.526;2024-03-08T05:24:51;31.63;;;25.13;;
22955;SDS011;40888;48.148;11.526;2024-03-08T05:27:17;32.07;;;25.23;;
22955;SDS011;40888;48.148;11.526;2024-03-08T05:29:43;32.23;;;25.67;;
22955;SDS011;40888;48.148;11.526;2024-03-08T05:32:09;34.17;;;26.23;;
22955;SDS011;40888;48.148;11.526;2024-03-08T05:34:35;33.63;;;26.80;;
22955;SDS011;40888;48.148;11.526;2024-03-08T05:37:01;28.50;;;24.90;;
22955;SDS011;40888;48.148;11.526;2024-03-08T05:39:27;29.17;;;24.63;;
22955;SDS011;40888;48.148;11.526;2024-03-08T05:41:53;32.23;;;24.03;;
22955;SDS011;40888;48.148;11.526;2024-03-08T05:44:20;31.90;;;25.37;;
22955;SDS011;40888;48.148;11.526;2024-03-08T05:46:46;31.03;;;25.37;;
22955;SDS011;40888;48.148;11.526;2024-03-08T05:49:11;32.60;;;26.37;;
22955;SDS011;40888;48.148;11.526;2024-03-08T05:51:38;31.60;;;25.33;;
22955;SDS011;40888;48.148;11.526;2024-03-08T05:54:08;30.67;;;25.37;;
22955;SDS011;40888;48.148;11.526;2024-03-08T05:56:36;29.10;;;23.77;;
22955;SDS011;40888;48.148;11.526;2024-03-08T05:59:02;30.20;;;25.30;;
22955;SDS011;40888;48.148;11.526;2024-03-08T06:01:28;29.80;;;24.63;;
22955;SDS011;40888;48.148;11.526;2024-03-08T06:03:56;29.37;;;23.60;;
22955;SDS011;40888;48.148;11.526;2024-03-08T06:06:22;28.67;;;24.10;;
22955;SDS011;40888;48.148;11.526;2024-03-08T06:08:49;28.17;;;23.57;;
22955;SDS011;40888;48.148;11.526;2024-03-08T06:11:15;28.70;;;24.33;;
22955;SDS011;40888;48.148;11.526;2024-03-08T06:13:43;30.97;;;25.53;;
22955;SDS011;40888;48.148;11.526;2024-03-08T06:16:09;29.10;;;24.63;;
22955;SDS011;40888;48.148;11.526;2024-03-08T06:18:35;26.97;;;22.63;;
22955;SDS011;40888;48.148;11.526;2024-03-08T06:21:12;30.37;;;23.60;;
22955;SDS011;40888;48.148;11.526;2024-03-08T06:23:37;30.03;;;23.97;;
22955;SDS011;40888;48.148;11.526;2024-03-08T06:26:06;28.60;;;23.60;;
22955;SDS011;40888;48.148;11.526;2024-03-08T06:28:33;29.53;;;24.10;;
22955;SDS011;40888;48.148;11.526;2024-03-08T06:31:00;25.63;;;22.53;;
22955;SDS011;40888;48.148;11.526;2024-03-08T06:33:26;27.57;;;22.70;;
22955;SDS011;40888;48.148;11.526;2024-03-08T06:35:52;26.90;;;22.87;;
22955;SDS011;40888;48.148;11.526;2024-03-08T06:38:22;27.00;;;21.73;;
22955;SDS011;40888;48.148;11.526;2024-03-08T06:40:51;27.67;;;22.57;;
22955;SDS011;40888;48.148;11.526;2024-03-08T06:43:17;31.10;;;23.27;;
22955;SDS011;40888;48.148;11.526;2024-03-08T06:45:46;25.23;;;21.77;;
22955;SDS011;40888;48.148;11.526;2024-03-08T06:48:18;27.13;;;21.77;;
22955;SDS011;40888;48.148;11.526;2024-03-08T06:50:44;25.33;;;21.40;;
22955;SDS011;40888;48.148;11.526;2024-03-08T06:53:11;26.77;;;21.40;;
22955;SDS011;40888;48.148;11.526;2024-03-08T06:55:38;25.53;;;20.40;;
22955;SDS011;40888;48.148;11.526;2024-03-08T06:58:04;27.10;;;21.30;;
22955;SDS011;40888;48.148;11.526;2024-03-08T07:00:32;23.67;;;21.07;;
22955;SDS011;40888;48.148;11.526;2024-03-08T07:02:58;24.87;;;21.43;;
22955;SDS011;40888;48.148;11.526;2024-03-08T07:05:30;25.80;;;21.20;;
22955;SDS011;40888;48.148;11.526;2024-03-08T07:07:57;28.03;;;22.37;;
22955;SDS011;40888;48.148;11.526;2024-03-08T07:10:23;26.90;;;21.00;;
22955;SDS011;40888;48.148;11.526;2024-03-08T07:12:54;28.10;;;22.00;;
22955;SDS011;40888;48.148;11.526;2024-03-08T07:15:45;25.87;;;20.40;;
22955;SDS011;40888;48.148;11.526;2024-03-08T07:18:14;24.07;;;20.50;;
22955;SDS011;40888;48.148;11.526;2024-03-08T07:20:40;27.33;;;21.17;;
22955;SDS011;40888;48.148;11.526;2024-03-08T07:23:07;27.00;;;21.57;;
22955;SDS011;40888;48.148;11.526;2024-03-08T07:25:33;26.30;;;21.17;;
22955;SDS011;40888;48.148;11.526;2024-03-08T07:28:00;24.70;;;20.57;;
22955;SDS011;40888;48.148;11.526;2024-03-08T07:30:27;28.90;;;22.37;;
22955;SDS011;40888;48.148;11.526;2024-03-08T07:33:08;24.10;;;19.33;;
22955;SDS011;40888;48.148;11.526;2024-03-08T07:35:38;24.13;;;20.77;;
22955;SDS011;40888;48.148;11.526;2024-03-08T07:38:05;28.23;;;21.17;;
22955;SDS011;40888;48.148;11.526;2024-03-08T07:40:41;23.90;;;20.60;;
22955;SDS011;40888;48.148;11.526;2024-03-08T07:43:10;24.23;;;19.67;;
22955;SDS011;40888;48.148;11.526;2024-03-08T07:45:37;23.67;;;20.00;;
22955;SDS011;40888;48.148;11.526;2024-03-08T07:48:03;27.27;;;21.80;;
22955;SDS011;40888;48.148;11.526;2024-03-08T07:50:34;27.20;;;22.17;;
22955;SDS011;40888;48.148;11.526;2024-03-08T07:53:04;25.50;;;20.10;;
22955;SDS011;40888;48.148;11.526;2024-03-08T07:55:32;24.60;;;20.03;;
22955;SDS011;40888;48.148;11.526;2024-03-08T07:57:58;25.60;;;20.13;;
22955;SDS011;40888;48.148;11.526;2024-03-08T08:00:24;25.90;;;21.33;;
22955;SDS011;40888;48.148;11.526;2024-03-08T08:02:52;25.10;;;19.97;;
22955;SDS011;40888;48.148;11.526;2024-03-08T08:05:18;21.23;;;18.57;;
22955;SDS011;40888;48.148;11.526;2024-03-08T08:07:44;20.77;;;17.93;;
22955;SDS011;40888;48.148;11.526;2024-03-08T08:10:11;23.37;;;18.57;;
22955;SDS011;40888;48.148;11.526;2024-03-08T08:12:43;20.70;;;16.77;;
22955;SDS011;40888;48.148;11.526;2024-03-08T08:15:09;19.57;;;17.30;;
22955;SDS011;40888;48.148;11.526;2024-03-08T08:17:35;19.50;;;15.97;;
22955;SDS011;40888;48.148;11.526;2024-03-08T08:20:01;18.93;;;15.97;;
22955;SDS011;40888;48.148;11.526;2024-03-08T08:22:30;17.53;;;14.77;;
22955;SDS011;40888;48.148;11.526;2024-03-08T08:24:56;19.00;;;15.60;;
22955;SDS011;40888;48.148;11.526;2024-03-08T08:27:21;19.33;;;15.20;;
22955;SDS011;40888;48.148;11.526;2024-03-08T08:29:47;20.33;;;16.83;;
22955;SDS011;40888;48.148;11.526;2024-03-08T08:32:14;19.70;;;16.80;;
22955;SDS011;40888;48.148;11.526;2024-03-08T08:34:40;19.17;;;16.67;;
22955;SDS011;40888;48.148;11.526;2024-03-08T08:37:07;20.60;;;17.07;;
22955;SDS011;40888;48.148;11.526;2024-03-08T08:39:34;18.97;;;16.30;;
22955;SDS011;40888;48.148;11.526;2024-03-08T08:42:00;18.83;;;15.50;;
22955;SDS011;40888;48.148;11.526;2024-03-08T08:44:28;19.30;;;16.07;;
22955;SDS011;40888;48.148;11.526;2024-03-08T08:46:56;20.57;;;16.80;;
22955;SDS011;40888;48.148;11.526;2024-03-08T08:49:22;18.43;;;15.70;;
22955;SDS011;40888;48.148;11.526;2024-03-08T08:51:49;18.77;;;15.47;;
22955;SDS011;40888;48.148;11.526;2024-03-08T08:54:15;16.27;;;13.97;;
22955;SDS011;40888;48.148;11.526;2024-03-08T08:56:42;16.47;;;14.73;;
22955;SDS011;40888;48.148;11.526;2024-03-08T08:59:12;16.10;;;14.23;;
22955;SDS011;40888;48.148;11.526;2024-03-08T09:01:44;16.37;;;14.53;;
22955;SDS011;40888;48.148;11.526;2024-03-08T09:04:12;18.00;;;15.27;;
22955;SDS011;40888;48.148;11.526;2024-03-08T09:06:38;14.37;;;12.87;;
22955;SDS011;40888;48.148;11.526;2024-03-08T09:09:06;16.08;;;13.20;;
22955;SDS011;40888;48.148;11.526;2024-03-08T09:11:36;14.85;;;12.77;;
22955;SDS011;40888;48.148;11.526;2024-03-08T09:14:06;17.98;;;13.13;;
22955;SDS011;40888;48.148;11.526;2024-03-08T09:16:32;14.85;;;13.30;;
22955;SDS011;40888;48.148;11.526;2024-03-08T09:18:58;15.98;;;11.95;;
22955;SDS011;40888;48.148;11.526;2024-03-08T09:21:24;14.93;;;10.77;;
22955;SDS011;40888;48.148;11.526;2024-03-08T09:23:52;16.85;;;12.23;;
22955;SDS011;40888;48.148;11.526;2024-03-08T09:26:18;17.30;;;11.52;;
22955;SDS011;40888;48.148;11.526;2024-03-08T09:28:44;16.15;;;12.32;;
22955;SDS011;40888;48.148;11.526;2024-03-08T09:31:10;15.50;;;11.25;;
22955;SDS011;40888;48.148;11.526;2024-03-08T09:33:37;17.67;;;12.40;;
22955;SDS011;40888;48.148;11.526;2024-03-08T09:36:04;16.30;;;11.57;;
22955;SDS011;40888;48.148;11.526;2024-03-08T09:38:32;14.07;;;11.60;;
22955;SDS011;40888;48.148;11.526;2024-03-08T09:40:59;18.73;;;12.07;;
22955;SDS011;40888;48.148;11.526;2024-03-08T09:43:27;17.83;;;13.27;;
22955;SDS011;40888;48.148;11.526;2024-03-08T09:45:57;17.10;;;12.05;;
22955;SDS011;40888;48.148;11.526;2024-03-08T09:48:23;15.57;;;12.73;;
22955;SDS011;40888;48.148;11.526;2024-03-08T09:50:51;16.55;;;13.07;;
22955;SDS011;40888;48.148;11.526;2024-03-08T09:53:17;17.33;;;12.63;;
22955;SDS011;40888;48.148;11.526;2024-03-08T09:55:43;17.45;;;13.57;;
22955;SDS011;40888;48.148;11.526;2024-03-08T09:58:13;17.33;;;12.93;;
22955;SDS011;40888;48.148;11.526;2024-03-08T10:01:07;15.80;;;12.38;;
22955;SDS011;40888;48.148;11.526;2024-03-08T10:03:33;18.30;;;13.80;;
22955;SDS011;40888;48.148;11.526;2024-03-08T10:05:59;21.58;;;13.05;;
22955;SDS011;40888;48.148;11.526;2024-03-08T10:08:28;18.63;;;12.95;;
22955;SDS011;40888;48.148;11.526;2024-03-08T10:10:55;20.98;;;12.80;;
22955;SDS011;40888;48.148;11.526;2024-03-08T10:13:23;17.80;;;12.85;;
22955;SDS011;40888;48.148;11.526;2024-03-08T10:15:52;17.60;;;13.40;;
22955;SDS011;40888;48.148;11.526;2024-03-08T10:18:17;17.13;;;12.90;;
22955;SDS011;40888;48.148;11.526;2024-03-08T10:20:43;18.10;;;13.77;;
22955;SDS011;40888;48.148;11.526;2024-03-08T10:23:09;17.60;;;12.77;;
22955;SDS011;40888;48.148;11.526;2024-03-08T10:25:35;18.70;;;11.60;;
22955;SDS011;40888;48.148;11.526;2024-03-08T10:28:04;17.67;;;12.57;;
22955;SDS011;40888;48.148;11.526;2024-03-08T10:30:31;16.13;;;14.43;;
22955;SDS011;40888;48.148;11.526;2024-03-08T10:32:57;20.10;;;15.87;;
22955;SDS011;40888;48.148;11.526;2024-03-08T10:35:23;17.43;;;15.43;;
22955;SDS011;40888;48.148;11.526;2024-03-08T10:37:51;18.87;;;14.90;;
22955;SDS011;40888;48.148;11.526;2024-03-08T10:40:27;19.63;;;15.70;;
22955;SDS011;40888;48.148;11.526;2024-03-08T10:42:58;15.63;;;13.43;;
22955;SDS011;40888;48.148;11.526;2024-03-08T10:45:40;16.60;;;14.83;;
22955;SDS011;40888;48.148;11.526;2024-03-08T10:51:02;15.93;;;13.87;;
22955;SDS011;40888;48.148;11.526;2024-03-08T10:53:28;15.80;;;14.10;;
22955;SDS011;40888;48.148;11.526;2024-03-08T10:55:56;17.93;;;13.87;;
22955;SDS011;40888;48.148;11.526;2024-03-08T10:58:23;15.60;;;13.87;;
22955;SDS011;40888;48.148;11.526;2024-03-08T11:00:54;15.30;;;13.37;;
22955;SDS011;40888;48.148;11.526;2024-03-08T11:09:08;15.10;;;13.50;;
22955;SDS011;40888;48.148;11.526;2024-03-08T11:11:52;15.13;;;13.50;;
22955;SDS011;40888;48.148;11.526;2024-03-08T11:17:09;17.20;;;13.23;;
22955;SDS011;40888;48.148;11.526;2024-03-08T11:19:34;15.73;;;14.07;;
22955;SDS011;40888;48.148;11.526;2024-03-08T11:22:01;16.80;;;14.30;;
22955;SDS011;40888;48.148;11.526;2024-03-08T11:24:36;13.27;;;11.87;;
22955;SDS011;40888;48.148;11.526;2024-03-08T11:27:05;14.03;;;12.60;;
22955;SDS011;40888;48.148;11.526;2024-03-08T11:29:35;15.10;;;12.93;;
22955;SDS011;40888;48.148;11.526;2024-03-08T11:32:03;15.87;;;13.63;;
22955;SDS011;40888;48.148;11.526;2024-03-08T11:34:34;14.97;;;13.13;;
22955;SDS011;40888;48.148;11.526;2024-03-08T11:37:00;15.90;;;13.60;;
22955;SDS011;40888;48.148;11.526;2024-03-08T11:39:28;15.67;;;13.67;;
22955;SDS011;40888;48.148;11.526;2024-03-08T11:41:55;15.13;;;13.53;;
22955;SDS011;40888;48.148;11.526;2024-03-08T11:44:21;15.57;;;13.30;;
22955;SDS011;40888;48.148;11.526;2024-03-08T11:46:52;18.43;;;14.00;;
22955;SDS011;40888;48.148;11.526;2024-03-08T11:49:19;16.00;;;14.17;;
22955;SDS011;40888;48.148;11.526;2024-03-08T11:51:45;18.50;;;14.60;;
22955;SDS011;40888;48.148;11.526;2024-03-08T11:54:11;14.53;;;13.03;;
22955;SDS011;40888;48.148;11.526;2024-03-08T11:56:38;15.97;;;13.80;;
22955;SDS011;40888;48.148;11.526;2024-03-08T11:59:05;15.27;;;13.43;;
22955;SDS011;40888;48.148;11.526;2024-03-08T12:01:35;16.85;;;12.02;;
22955;SDS011;40888;48.148;11.526;2024-03-08T12:04:02;16.15;;;11.88;;
22955;SDS011;40888;48.148;11.526;2024-03-08T12:06:40;16.47;;;11.40;;
22955;SDS011;40888;48.148;11.526;2024-03-08T12:09:12;16.52;;;11.98;;
22955;SDS011;40888;48.148;11.526;2024-03-08T12:11:38;15.38;;;11.77;;
22955;SDS011;40888;48.148;11.526;2024-03-08T12:14:06;17.60;;;11.95;;
22955;SDS011;40888;48.148;11.526;2024-03-08T12:16:32;14.75;;;10.93;;
22955;SDS011;40888;48.148;11.526;2024-03-08T12:18:58;15.20;;;11.03;;
22955;SDS011;40888;48.148;11.526;2024-03-08T12:21:25;17.30;;;12.10;;
22955;SDS011;40888;48.148;11.526;2024-03-08T12:24:06;16.47;;;11.67;;
22955;SDS011;40888;48.148;11.526;2024-03-08T12:26:34;16.43;;;11.40;;
22955;SDS011;40888;48.148;11.526;2024-03-08T12:29:14;18.50;;;12.60;;
22955;SDS011;40888;48.148;11.526;2024-03-08T12:31:45;15.57;;;11.40;;
22955;SDS011;40888;48.148;11.526;2024-03-08T12:34:12;14.93;;;10.87;;
22955;SDS011;40888;48.148;11.526;2024-03-08T12:36:44;18.50;;;12.60;;
22955;SDS011;40888;48.148;11.526;2024-03-08T12:39:16;18.13;;;12.53;;
22955;SDS011;40888;48.148;11.526;2024-03-08T12:41:48;16.00;;;11.93;;
22955;SDS011;40888;48.148;11.526;2024-03-08T12:44:16;16.77;;;11.97;;
22955;SDS011;40888;48.148;11.526;2024-03-08T12:46:44;17.10;;;12.40;;
22955;SDS011;40888;48.148;11.526;2024-03-08T12:49:10;18.33;;;12.50;;
22955;SDS011;40888;48.148;11.526;2024-03-08T12:51:37;16.10;;;12.03;;
22955;SDS011;40888;48.148;11.526;2024-03-08T12:54:04;18.23;;;11.98;;
22955;SDS011;40888;48.148;11.526;2024-03-08T12:56:32;16.33;;;11.10;;
22955;SDS011;40888;48.148;11.526;2024-03-08T12:59:00;16.17;;;12.60;;
22955;SDS011;40888;48.148;11.526;2024-03-08T13:01:26;16.43;;;12.23;;
22955;SDS011;40888;48.148;11.526;2024-03-08T13:03:53;17.77;;;11.90;;
22955;SDS011;40888;48.148;11.526;2024-03-08T13:06:20;17.83;;;11.87;;
22955;SDS011;40888;48.148;11.526;2024-03-08T13:08:52;17.00;;;12.37;;
22955;SDS011;40888;48.148;11.526;2024-03-08T13:11:19;16.20;;;12.43;;
22955;SDS011;40888;48.148;11.526;2024-03-08T13:13:45;17.83;;;12.50;;
22955;SDS011;40888;48.148;11.526;2024-03-08T13:16:11;14.03;;;10.93;;
22955;SDS011;40888;48.148;11.526;2024-03-08T13:18:40;17.10;;;11.07;;
22955;SDS011;40888;48.148;11.526;2024-03-08T13:21:07;16.23;;;11.63;;
22955;SDS011;40888;48.148;11.526;2024-03-08T13:23:34;14.40;;;11.17;;
22955;SDS011;40888;48.148;11.526;2024-03-08T13:26:10;16.43;;;11.53;;
22955;SDS011;40888;48.148;11.526;2024-03-08T13:28:40;15.20;;;11.93;;
22955;SDS011;40888;48.148;11.526;2024-03-08T13:31:09;16.20;;;12.03;;
22955;SDS011;40888;48.148;11.526;2024-03-08T13:33:39;14.10;;;10.30;;
22955;SDS011;40888;48.148;11.526;2024-03-08T13:36:07;17.33;;;10.83;;
22955;SDS011;40888;48.148;11.526;2024-03-08T13:38:46;14.27;;;10.80;;
22955;SDS011;40888;48.148;11.526;2024-03-08T13:41:13;16.73;;;11.80;;
22955;SDS011;40888;48.148;11.526;2024-03-08T13:43:42;14.73;;;10.77;;
22955;SDS011;40888;48.148;11.526;2024-03-08T13:46:17;15.03;;;10.70;;
22955;SDS011;40888;48.148;11.526;2024-03-08T13:48:43;14.03;;;10.40;;
22955;SDS011;40888;48.148;11.526;2024-03-08T13:51:08;15.20;;;11.23;;
22955;SDS011;40888;48.148;11.526;2024-03-08T13:53:40;13.57;;;10.70;;
22955;SDS011;40888;48.148;11.526;2024-03-08T13:56:06;18.13;;;11.70;;
22955;SDS011;40888;48.148;11.526;2024-03-08T13:58:33;16.13;;;11.30;;
22955;SDS011;40888;48.148;11.526;2024-03-08T14:01:00;16.17;;;10.90;;
22955;SDS011;40888;48.148;11.526;2024-03-08T14:03:28;14.10;;;10.87;;
22955;SDS011;40888;48.148;11.526;2024-03-08T14:05:54;11.37;;;9.33;;
22955;SDS011;40888;48.148;11.526;2024-03-08T14:08:23;13.47;;;10.13;;
22955;SDS011;40888;48.148;11.526;2024-03-08T14:10:49;14.57;;;10.70;;
22955;SDS011;40888;48.148;11.526;2024-03-08T14:13:17;15.70;;;11.67;;
22955;SDS011;40888;48.148;11.526;2024-03-08T14:15:44;14.20;;;9.87;;
22955;SDS011;40888;48.148;11.526;2024-03-08T14:18:11;16.00;;;11.53;;
22955;SDS011;40888;48.148;11.526;2024-03-08T14:20:38;13.70;;;10.30;;
22955;SDS011;40888;48.148;11.526;2024-03-08T14:23:04;14.40;;;10.93;;